createdAt,value
2022-09-26T00:01:45.853Z,100370.59
2022-09-26T00:04:22.985Z,100372.25
2022-09-26T00:06:53.378Z,100360.13
2022-09-26T00:09:24.455Z,100347.53
2022-09-26T00:11:55.268Z,100336.50
2022-09-26T00:14:27.362Z,100307.75
2022-09-26T00:16:57.003Z,100315.41
2022-09-26T00:19:27.506Z,100314.69
2022-09-26T00:21:57.348Z,100322.78
2022-09-26T00:24:25.625Z,100310.50
2022-09-26T00:26:54.106Z,100326.28
2022-09-26T00:29:22.541Z,100320.97
2022-09-26T00:31:51.090Z,100324.50
2022-09-26T00:34:22.296Z,100355.16
2022-09-26T00:36:53.010Z,100365.50
2022-09-26T00:39:21.370Z,100353.91
2022-09-26T00:41:49.655Z,100361.03
2022-09-26T00:44:41.331Z,100345.53
2022-09-26T00:47:30.859Z,100345.66
2022-09-26T00:50:04.027Z,100345.41
2022-09-26T00:52:38.489Z,100338.28
2022-09-26T00:55:11.787Z,100327.25
2022-09-26T00:57:46.798Z,100320.56
2022-09-26T01:00:16.357Z,100307.97
2022-09-26T01:02:46.785Z,100301.84
2022-09-26T01:05:18.360Z,100296.97
2022-09-26T01:07:49.029Z,100281.78
2022-09-26T01:10:19.224Z,100281.94
2022-09-26T01:12:48.930Z,100277.84
2022-09-26T01:15:18.753Z,100266.13
2022-09-26T01:17:48.052Z,100267.53
2022-09-26T01:20:28.370Z,100259.84
2022-09-26T01:23:39.547Z,100274.81
2022-09-26T01:26:41.876Z,100265.34
2022-09-26T01:30:04.302Z,100249.44
2022-09-26T01:32:58.351Z,100247.63
2022-09-26T01:35:42.532Z,100245.25
2022-09-26T01:38:21.636Z,100256.81
2022-09-26T01:41:03.258Z,100232.13
2022-09-26T01:43:37.589Z,100240.91
2022-09-26T01:46:13.334Z,100248.88
2022-09-26T01:48:48.603Z,100241.19
2022-09-26T01:51:21.225Z,100242.03
2022-09-26T01:53:56.591Z,100219.31
2022-09-26T01:56:28.181Z,100222.69
2022-09-26T01:59:01.301Z,100227.84
2022-09-26T02:01:32.938Z,100211.00
2022-09-26T02:04:10.505Z,100213.91
2022-09-26T02:06:43.888Z,100231.78
2022-09-26T02:09:18.249Z,100203.75
2022-09-26T02:11:52.373Z,100213.38
2022-09-26T02:14:27.673Z,100216.75
2022-09-26T02:17:02.189Z,100227.63
2022-09-26T02:19:38.415Z,100224.03
2022-09-26T02:22:07.079Z,100214.84
2022-09-26T02:24:35.860Z,100217.50
2022-09-26T02:27:04.389Z,100218.88
2022-09-26T02:29:32.635Z,100239.63
2022-09-26T02:32:05.979Z,100222.34
2022-09-26T02:34:36.397Z,100234.06
2022-09-26T02:37:06.416Z,100225.97
2022-09-26T02:39:35.213Z,100213.28
2022-09-26T02:42:15.050Z,100225.00
2022-09-26T02:45:08.463Z,100236.56
2022-09-26T02:48:00.941Z,100241.72
2022-09-26T02:50:48.205Z,100254.81
2022-09-26T02:53:35.402Z,100247.13
2022-09-26T02:56:14.749Z,100256.53
2022-09-26T02:58:48.805Z,100252.78
2022-09-26T03:01:26.135Z,100256.78
2022-09-26T03:04:01.627Z,100243.13
2022-09-26T03:06:38.737Z,100256.50
2022-09-26T03:09:09.848Z,100267.91
2022-09-26T03:11:38.973Z,100280.72
2022-09-26T03:14:09.667Z,100267.94
2022-09-26T03:16:45.502Z,100246.50
2022-09-26T03:19:22.725Z,100236.63
2022-09-26T03:21:52.614Z,100252.50
2022-09-26T03:24:22.005Z,100255.13
2022-09-26T03:26:52.031Z,100252.78
2022-09-26T03:29:21.502Z,100255.97
2022-09-26T03:31:50.684Z,100237.59
2022-09-26T03:34:19.318Z,100223.69
2022-09-26T03:36:48.105Z,100228.00
2022-09-26T03:39:17.990Z,100232.72
2022-09-26T03:41:47.033Z,100228.66
2022-09-26T03:44:16.333Z,100232.03
2022-09-26T03:46:44.694Z,100227.69
2022-09-26T03:49:13.498Z,100216.97
2022-09-26T03:51:43.980Z,100221.69
2022-09-26T03:54:13.260Z,100216.94
2022-09-26T03:56:43.079Z,100226.38
2022-09-26T03:59:11.925Z,100227.03
2022-09-26T04:01:41.869Z,100235.09
2022-09-26T04:04:10.415Z,100247.25
2022-09-26T04:06:39.476Z,100240.81
2022-09-26T04:09:16.587Z,100236.38
2022-09-26T04:11:47.740Z,100220.41
2022-09-26T04:14:16.303Z,100229.16
2022-09-26T04:16:46.013Z,100238.03
2022-09-26T04:19:15.119Z,100233.16
2022-09-26T04:21:43.936Z,100236.66
2022-09-26T04:24:16.500Z,100219.06
2022-09-26T04:26:46.981Z,100222.00
2022-09-26T04:29:16.654Z,100223.34
2022-09-26T04:31:45.172Z,100229.03
2022-09-26T04:34:15.131Z,100232.19
2022-09-26T04:36:43.996Z,100214.25
2022-09-26T04:39:13.207Z,100215.72
2022-09-26T04:41:42.015Z,100210.13
2022-09-26T04:44:13.302Z,100204.72
2022-09-26T04:46:41.887Z,100198.59
2022-09-26T04:49:11.898Z,100200.50
2022-09-26T04:51:40.522Z,100189.69
2022-09-26T04:54:09.413Z,100197.63
2022-09-26T04:56:37.794Z,100196.25
2022-09-26T04:59:10.724Z,100190.34
2022-09-26T05:01:40.887Z,100186.81
2022-09-26T05:04:10.192Z,100188.31
2022-09-26T05:06:39.364Z,100190.78
2022-09-26T05:09:08.441Z,100205.06
2022-09-26T05:11:36.765Z,100202.56
2022-09-26T05:14:05.571Z,100209.19
2022-09-26T05:16:33.927Z,100204.00
2022-09-26T05:19:04.738Z,100208.00
2022-09-26T05:21:33.549Z,100219.16
2022-09-26T05:24:19.433Z,100212.69
2022-09-26T05:26:50.433Z,100219.34
2022-09-26T05:29:20.701Z,100221.13
2022-09-26T05:31:49.295Z,100229.91
2022-09-26T05:34:20.563Z,100247.28
2022-09-26T05:36:48.980Z,100242.00
2022-09-26T05:39:43.461Z,100244.13
2022-09-26T05:42:11.953Z,100251.91
2022-09-26T05:44:44.119Z,100259.59
2022-09-26T05:47:13.269Z,100275.06
2022-09-26T05:53:12.255Z,100277.56
2022-09-26T05:55:40.651Z,100275.66
2022-09-26T05:58:10.243Z,100267.97
2022-09-26T06:00:39.164Z,100285.69
2022-09-26T06:03:07.824Z,100290.66
2022-09-26T06:05:38.460Z,100292.31
2022-09-26T06:08:07.348Z,100282.59
2022-09-26T06:10:35.639Z,100280.34
2022-09-26T06:13:05.058Z,100276.03
2022-09-26T06:15:33.833Z,100271.72
2022-09-26T06:18:05.277Z,100291.13
2022-09-26T06:20:34.500Z,100294.63
2022-09-26T06:23:05.297Z,100311.69
2022-09-26T06:25:33.580Z,100312.53
2022-09-26T06:28:03.483Z,100298.88
2022-09-26T06:30:33.190Z,100311.34
2022-09-26T06:33:02.249Z,100309.91
2022-09-26T06:35:34.280Z,100311.00
2022-09-26T06:38:05.102Z,100313.63
2022-09-26T06:40:33.911Z,100333.78
2022-09-26T06:43:02.341Z,100340.13
2022-09-26T06:45:32.097Z,100326.00
2022-09-26T06:48:03.306Z,100325.03
2022-09-26T06:50:32.383Z,100330.78
2022-09-26T06:53:12.816Z,100333.56
2022-09-26T06:55:42.133Z,100320.59
2022-09-26T06:58:12.237Z,100320.59
2022-09-26T07:00:42.638Z,100331.88
2022-09-26T07:03:13.690Z,100325.13
2022-09-26T07:05:42.720Z,100330.31
2022-09-26T07:08:32.584Z,100332.22
2022-09-26T07:11:50.359Z,100329.72
2022-09-26T07:14:08.487Z,100332.00
2022-09-26T07:16:36.891Z,100334.13
2022-09-26T07:19:05.371Z,100334.72
2022-09-26T07:21:48.095Z,100338.09
2022-09-26T07:24:25.289Z,100343.50
2022-09-26T07:27:03.344Z,100355.00
2022-09-26T07:29:39.362Z,100361.25
2022-09-26T07:32:07.690Z,100363.06
2022-09-26T07:34:36.113Z,100370.13
2022-09-26T07:37:04.744Z,100368.03
2022-09-26T07:39:35.090Z,100373.06
2022-09-26T07:42:03.497Z,100379.41
2022-09-26T07:47:38.235Z,100372.22
2022-09-26T07:50:15.987Z,100392.91
2022-09-26T07:52:45.890Z,100383.88
2022-09-26T07:55:18.376Z,100395.47
2022-09-26T07:57:48.492Z,100398.72
2022-09-26T08:00:19.703Z,100400.75
2022-09-26T08:02:49.231Z,100404.69
2022-09-26T08:05:21.787Z,100413.59
2022-09-26T08:07:51.477Z,100416.66
2022-09-26T08:10:24.626Z,100407.56
2022-09-26T08:12:54.078Z,100406.38
2022-09-26T08:15:23.884Z,100395.03
2022-09-26T08:17:52.184Z,100395.25
2022-09-26T08:20:21.060Z,100389.38
2022-09-26T08:22:49.853Z,100385.22
2022-09-26T08:25:18.389Z,100389.78
2022-09-26T08:27:48.661Z,100385.56
2022-09-26T08:30:18.013Z,100387.13
2022-09-26T08:32:54.855Z,100386.25
2022-09-26T08:35:23.204Z,100376.75
2022-09-26T08:37:52.731Z,100386.25
2022-09-26T08:40:28.739Z,100384.88
2022-09-26T08:43:07.513Z,100379.72
2022-09-26T08:46:01.469Z,100391.59
2022-09-26T08:48:43.554Z,100399.13
2022-09-26T08:51:28.257Z,100404.69
2022-09-26T08:54:05.920Z,100397.72
2022-09-26T08:56:38.635Z,100402.50
2022-09-26T08:59:15.774Z,100403.31
2022-09-26T09:01:46.845Z,100400.16
2022-09-26T09:04:19.335Z,100402.22
2022-09-26T09:06:51.807Z,100420.16
2022-09-26T09:09:20.812Z,100401.25
2022-09-26T09:12:04.529Z,100430.34
2022-09-26T09:15:02.389Z,100415.66
2022-09-26T09:17:45.732Z,100418.59
2022-09-26T09:20:19.807Z,100412.50
2022-09-26T09:23:12.470Z,100422.63
2022-09-26T09:25:48.024Z,100418.41
2022-09-26T09:28:32.766Z,100413.56
2022-09-26T09:31:05.869Z,100413.47
2022-09-26T09:33:39.673Z,100426.84
2022-09-26T09:36:12.172Z,100424.09
2022-09-26T09:38:44.289Z,100425.06
2022-09-26T09:41:16.148Z,100423.34
2022-09-26T09:43:48.814Z,100417.13
2022-09-26T09:46:26.663Z,100416.75
2022-09-26T09:49:00.199Z,100424.53
2022-09-26T09:51:40.429Z,100428.00
2022-09-26T09:54:31.332Z,100413.78
2022-09-26T09:57:22.411Z,100407.13
2022-09-26T10:00:10.001Z,100427.06
2022-09-26T10:02:47.913Z,100411.31
2022-09-26T10:05:25.110Z,100411.72
2022-09-26T10:07:58.223Z,100413.34
2022-09-26T10:10:37.694Z,100417.50
2022-09-26T10:13:09.279Z,100408.47
2022-09-26T10:15:41.787Z,100407.81
2022-09-26T10:18:26.106Z,100412.00
2022-09-26T10:20:59.595Z,100405.72
2022-09-26T10:23:32.948Z,100415.22
2022-09-26T10:26:06.015Z,100418.25
2022-09-26T10:28:38.086Z,100435.59
2022-09-26T10:31:10.784Z,100424.41
2022-09-26T10:33:47.370Z,100420.75
2022-09-26T10:36:21.877Z,100427.72
2022-09-26T10:39:11.097Z,100412.78
2022-09-26T10:41:45.967Z,100406.69
2022-09-26T10:44:26.380Z,100402.56
2022-09-26T10:46:58.742Z,100418.84
2022-09-26T10:49:36.638Z,100407.94
2022-09-26T10:52:14.791Z,100404.06
2022-09-26T10:54:57.602Z,100404.06
2022-09-26T10:57:30.671Z,100420.16
2022-09-26T11:00:01.748Z,100411.38
2022-09-26T11:02:30.473Z,100406.72
2022-09-26T11:05:19.813Z,100407.19
2022-09-26T11:07:49.634Z,100403.31
2022-09-26T11:10:25.728Z,100393.97
2022-09-26T11:13:00.551Z,100401.38
2022-09-26T11:15:30.275Z,100383.00
2022-09-26T11:17:59.847Z,100389.94
2022-09-26T11:20:42.058Z,100385.28
2022-09-26T11:23:31.743Z,100386.44
2022-09-26T11:26:15.681Z,100382.78
2022-09-26T11:28:49.014Z,100381.81
2022-09-26T11:31:26.403Z,100367.06
2022-09-26T11:34:04.653Z,100371.59
2022-09-26T11:36:57.040Z,100368.47
2022-09-26T11:39:41.827Z,100355.88
2022-09-26T11:42:26.186Z,100351.19
2022-09-26T11:44:58.887Z,100353.78
2022-09-26T11:48:13.839Z,100363.78
2022-09-26T11:50:56.223Z,100373.28
2022-09-26T11:53:44.491Z,100377.13
2022-09-26T11:56:26.853Z,100384.59
2022-09-26T11:59:06.838Z,100368.13
2022-09-26T12:01:44.514Z,100360.34
2022-09-26T12:04:41.437Z,100371.81
2022-09-26T12:07:18.307Z,100376.50
2022-09-26T12:10:04.646Z,100374.41
2022-09-26T12:12:43.022Z,100379.88
2022-09-26T12:15:23.785Z,100385.28
2022-09-26T12:18:08.623Z,100383.94
2022-09-26T12:20:43.944Z,100373.09
2022-09-26T12:23:21.961Z,100371.66
2022-09-26T12:26:05.390Z,100372.59
2022-09-26T12:29:06.703Z,100370.91
2022-09-26T12:31:49.051Z,100351.47
2022-09-26T12:34:32.594Z,100369.16
2022-09-26T12:37:15.249Z,100350.84
2022-09-26T12:40:00.132Z,100350.78
2022-09-26T12:42:48.876Z,100347.75
2022-09-26T12:45:42.686Z,100342.16
2022-09-26T12:48:31.561Z,100339.47
2022-09-26T12:51:20.314Z,100355.38
2022-09-26T12:54:11.340Z,100360.50
2022-09-26T12:56:49.609Z,100362.25
2022-09-26T12:59:37.819Z,100363.69
2022-09-26T13:02:34.779Z,100371.56
2022-09-26T13:05:31.303Z,100391.19
2022-09-26T13:08:09.224Z,100387.28
2022-09-26T13:10:52.504Z,100389.31
2022-09-26T13:14:06.525Z,100375.25
2022-09-26T13:16:45.666Z,100367.44
2022-09-26T13:19:23.809Z,100358.91
2022-09-26T13:22:00.738Z,100358.34
2022-09-26T13:24:42.031Z,100353.03
2022-09-26T13:27:17.902Z,100357.75
2022-09-26T13:29:51.294Z,100354.66
2022-09-26T13:32:28.135Z,100351.63
2022-09-26T13:35:04.410Z,100356.78
2022-09-26T13:37:43.369Z,100361.94
2022-09-26T13:40:28.176Z,100344.88
2022-09-26T13:43:11.254Z,100340.13
2022-09-26T13:45:56.561Z,100336.28
2022-09-26T13:48:38.987Z,100337.16
2022-09-26T13:51:19.905Z,100340.00
2022-09-26T13:53:58.206Z,100349.38
2022-09-26T13:56:44.643Z,100345.72
2022-09-26T13:59:36.383Z,100340.56
2022-09-26T14:02:24.839Z,100350.81
2022-09-26T14:05:16.175Z,100342.22
2022-09-26T14:08:09.223Z,100346.91
2022-09-26T14:10:55.207Z,100352.84
2022-09-26T14:19:17.692Z,100344.59
2022-09-26T14:22:02.787Z,100350.97
2022-09-26T14:24:38.057Z,100365.19
2022-09-26T14:29:49.025Z,100360.28
2022-09-26T14:32:19.206Z,100360.22
2022-09-26T14:34:55.443Z,100364.44
2022-09-26T14:37:33.095Z,100369.13
2022-09-26T14:40:24.798Z,100375.66
2022-09-26T14:42:57.366Z,100371.84
2022-09-26T14:45:28.343Z,100362.78
2022-09-26T14:48:08.066Z,100358.88
2022-09-26T14:50:46.023Z,100360.28
2022-09-26T14:53:23.881Z,100365.47
2022-09-26T14:55:59.946Z,100362.88
2022-09-26T14:58:34.459Z,100364.09
2022-09-26T15:01:06.453Z,100358.94
2022-09-26T15:03:36.008Z,100352.69
2022-09-26T15:06:08.977Z,100367.38
2022-09-26T15:08:39.812Z,100374.00
2022-09-26T15:11:08.826Z,100376.81
2022-09-26T15:13:39.887Z,100369.13
2022-09-26T15:16:20.450Z,100372.84
2022-09-26T15:18:54.495Z,100370.66
2022-09-26T15:21:34.667Z,100375.84
2022-09-26T15:24:24.334Z,100370.28
2022-09-26T15:26:53.419Z,100394.28
2022-09-26T15:29:22.357Z,100400.28
2022-09-26T15:31:51.679Z,100381.56
2022-09-26T15:34:24.480Z,100392.31
2022-09-26T15:36:57.160Z,100395.97
2022-09-26T15:39:45.149Z,100390.66
2022-09-26T15:42:48.798Z,100389.22
2022-09-26T15:45:30.388Z,100384.31
2022-09-26T15:48:01.826Z,100386.84
2022-09-26T15:50:41.816Z,100385.75
2022-09-26T15:53:22.489Z,100386.03
2022-09-26T15:55:59.524Z,100399.00
2022-09-26T15:58:35.802Z,100396.50
2022-09-26T16:01:06.698Z,100389.41
2022-09-26T16:03:49.310Z,100381.72
2022-09-26T16:06:30.274Z,100383.94
2022-09-26T16:09:08.750Z,100375.16
2022-09-26T16:11:47.757Z,100387.31
2022-09-26T16:14:31.072Z,100376.97
2022-09-26T16:17:23.641Z,100377.25
2022-09-26T16:20:37.240Z,100384.22
2022-09-26T16:23:29.922Z,100385.19
2022-09-26T16:25:59.351Z,100391.34
2022-09-26T16:28:52.481Z,100396.94
2022-09-26T16:31:40.825Z,100377.50
2022-09-26T16:34:26.304Z,100379.34
2022-09-26T16:37:17.932Z,100392.44
2022-09-26T16:40:19.035Z,100386.78
2022-09-26T16:42:48.621Z,100382.94
2022-09-26T16:45:30.747Z,100388.69
2022-09-26T16:48:37.117Z,100385.63
2022-09-26T16:51:25.821Z,100388.00
2022-09-26T16:53:57.939Z,100397.91
2022-09-26T16:56:29.924Z,100399.31
2022-09-26T16:59:00.863Z,100407.81
2022-09-26T17:01:49.419Z,100399.72
2022-09-26T17:04:23.796Z,100404.88
2022-09-26T17:06:53.369Z,100394.13
2022-09-26T17:09:24.656Z,100404.88
2022-09-26T17:12:05.182Z,100410.47
2022-09-26T17:14:47.135Z,100406.28
2022-09-26T17:17:24.034Z,100413.38
2022-09-26T17:20:04.763Z,100414.66
2022-09-26T17:22:35.180Z,100416.59
2022-09-26T17:25:07.116Z,100426.34
2022-09-26T17:27:38.370Z,100428.72
2022-09-26T17:30:19.336Z,100436.53
2022-09-26T17:32:54.710Z,100434.44
2022-09-26T17:35:29.379Z,100457.59
2022-09-26T17:37:58.477Z,100453.09
2022-09-26T17:40:33.317Z,100459.13
2022-09-26T17:43:10.575Z,100459.94
2022-09-26T17:45:46.966Z,100456.72
2022-09-26T17:48:25.742Z,100457.28
2022-09-26T17:50:56.530Z,100457.38
2022-09-26T17:53:32.644Z,100462.66
2022-09-26T17:56:06.149Z,100458.47
2022-09-26T17:58:37.018Z,100456.38
2022-09-26T18:01:22.639Z,100441.44
2022-09-26T18:04:12.914Z,100446.44
2022-09-26T18:06:43.132Z,100448.50
2022-09-26T18:09:16.954Z,100445.16
2022-09-26T18:11:52.449Z,100446.72
2022-09-26T18:14:21.023Z,100444.19
2022-09-26T18:16:49.764Z,100448.09
2022-09-26T18:19:21.320Z,100437.50
2022-09-26T18:21:55.348Z,100439.41
2022-09-26T18:24:27.135Z,100448.78
2022-09-26T18:27:03.454Z,100443.31
2022-09-26T18:29:35.966Z,100438.28
2022-09-26T18:32:13.270Z,100440.22
2022-09-26T18:34:44.867Z,100436.88
2022-09-26T18:37:13.602Z,100443.25
2022-09-26T18:39:43.389Z,100449.66
2022-09-26T18:42:22.884Z,100444.50
2022-09-26T18:45:00.278Z,100442.97
2022-09-26T18:47:28.816Z,100449.78
2022-09-26T18:50:08.615Z,100453.31
2022-09-26T18:52:37.536Z,100450.25
2022-09-26T18:55:38.596Z,100451.47
2022-09-26T18:58:25.402Z,100457.44
2022-09-26T19:01:05.811Z,100459.19
2022-09-26T19:03:38.186Z,100462.25
2022-09-26T19:06:14.261Z,100465.03
2022-09-26T19:08:46.896Z,100470.31
2022-09-26T19:11:18.612Z,100472.56
2022-09-26T19:13:49.949Z,100475.34
2022-09-26T19:16:19.818Z,100468.69
2022-09-26T19:18:49.556Z,100472.44
2022-09-26T19:21:30.998Z,100475.06
2022-09-26T19:24:03.213Z,100476.25
2022-09-26T19:26:36.482Z,100475.41
2022-09-26T19:29:11.975Z,100480.13
2022-09-26T19:31:42.637Z,100480.44
2022-09-26T19:34:16.064Z,100491.28
2022-09-26T19:36:47.968Z,100477.09
2022-09-26T19:39:17.350Z,100475.66
2022-09-26T19:41:58.439Z,100491.28
2022-09-26T19:44:31.481Z,100487.47
2022-09-26T19:47:02.232Z,100497.72
2022-09-26T19:49:33.220Z,100490.53
2022-09-26T19:52:05.431Z,100482.97
2022-09-26T19:54:38.063Z,100496.44
2022-09-26T19:57:19.170Z,100500.19
2022-09-26T19:59:50.886Z,100504.28
2022-09-26T20:02:32.703Z,100506.75
2022-09-26T20:05:01.411Z,100501.69
2022-09-26T20:07:31.327Z,100498.69
2022-09-26T20:09:59.790Z,100503.78
2022-09-26T20:12:41.980Z,100496.78
2022-09-26T20:15:13.124Z,100507.88
2022-09-26T20:17:44.912Z,100509.34
2022-09-26T20:20:18.490Z,100511.97
2022-09-26T20:22:51.905Z,100510.75
2022-09-26T20:25:27.143Z,100510.13
2022-09-26T20:27:56.920Z,100511.44
2022-09-26T20:30:44.488Z,100517.56
2022-09-26T20:33:13.898Z,100520.81
2022-09-26T20:35:45.991Z,100519.84
2022-09-26T20:38:22.048Z,100522.38
2022-09-26T20:40:54.438Z,100526.31
2022-09-26T20:43:32.940Z,100533.66
2022-09-26T20:46:05.889Z,100524.41
2022-09-26T20:48:37.116Z,100522.28
2022-09-26T20:51:07.448Z,100535.72
2022-09-26T20:53:39.310Z,100522.75
2022-09-26T20:56:17.097Z,100527.56
2022-09-26T20:58:48.735Z,100523.38
2022-09-26T21:01:24.117Z,100522.41
2022-09-26T21:03:56.174Z,100509.06
2022-09-26T21:06:28.101Z,100504.06
2022-09-26T21:08:59.550Z,100510.31
2022-09-26T21:11:30.557Z,100511.13
2022-09-26T21:14:00.547Z,100515.94
2022-09-26T21:16:30.307Z,100514.13
2022-09-26T21:18:58.919Z,100522.19
2022-09-26T21:21:31.134Z,100517.13
2022-09-26T21:24:03.247Z,100522.56
2022-09-26T21:26:34.253Z,100526.13
2022-09-26T21:29:06.111Z,100517.28
2022-09-26T21:31:37.103Z,100517.38
2022-09-26T21:34:13.037Z,100518.22
2022-09-26T21:36:42.565Z,100519.31
2022-09-26T21:39:15.160Z,100522.91
2022-09-26T21:41:44.522Z,100516.31
2022-09-26T21:44:18.914Z,100514.63
2022-09-26T21:46:49.928Z,100512.94
2022-09-26T21:49:19.531Z,100514.63
2022-09-26T21:51:52.372Z,100519.03
2022-09-26T21:54:26.828Z,100515.34
2022-09-26T21:57:06.033Z,100517.00
2022-09-26T21:59:35.145Z,100511.38
2022-09-26T22:02:06.086Z,100498.91
2022-09-26T22:04:35.872Z,100510.06
2022-09-26T22:07:05.304Z,100507.28
2022-09-26T22:09:35.995Z,100505.72
2022-09-26T22:12:04.602Z,100499.72
2022-09-26T22:14:34.079Z,100500.22
2022-09-26T22:17:03.655Z,100505.50
2022-09-26T22:19:33.611Z,100503.34
2022-09-26T22:22:02.638Z,100498.16
2022-09-26T22:24:33.218Z,100506.91
2022-09-26T22:27:03.560Z,100508.84
2022-09-26T22:29:33.043Z,100506.34
2022-09-26T22:32:01.809Z,100517.97
2022-09-26T22:34:33.429Z,100526.16
2022-09-26T22:37:01.878Z,100515.09
2022-09-26T22:39:40.371Z,100519.41
2022-09-26T22:42:11.944Z,100505.16
2022-09-26T22:44:41.600Z,100491.81
2022-09-26T22:47:11.596Z,100495.88
2022-09-26T22:49:39.946Z,100491.34
2022-09-26T22:52:08.432Z,100491.56
2022-09-26T22:54:36.879Z,100483.19
2022-09-26T22:57:05.528Z,100473.22
2022-09-26T22:59:39.554Z,100474.06
2022-09-26T23:02:15.599Z,100468.31
2022-09-26T23:04:50.279Z,100460.72
2022-09-26T23:07:20.566Z,100462.88
2022-09-26T23:09:57.844Z,100463.22
2022-09-26T23:12:32.742Z,100457.25
2022-09-26T23:15:03.184Z,100457.84
2022-09-26T23:17:33.161Z,100457.38
2022-09-26T23:20:01.513Z,100457.50
2022-09-26T23:22:30.519Z,100463.59
2022-09-26T23:24:59.292Z,100460.38
2022-09-26T23:27:28.069Z,100456.75
2022-09-26T23:29:57.596Z,100446.31
2022-09-26T23:32:29.398Z,100441.88
2022-09-26T23:34:59.925Z,100446.44
2022-09-26T23:37:28.838Z,100431.09
2022-09-26T23:39:58.273Z,100430.50
2022-09-26T23:42:27.070Z,100439.72
2022-09-26T23:44:56.594Z,100434.44
2022-09-26T23:47:25.639Z,100426.28
2022-09-26T23:49:56.645Z,100414.03
2022-09-26T23:52:26.377Z,100405.91
2022-09-26T23:54:54.789Z,100403.03
2022-09-26T23:57:25.593Z,100408.56
2022-09-26T23:59:54.242Z,100411.06
